PWSweather.com
Personal Weather Stations
Station Observations
MAHIABEACH
Mahia Beach, Mahia Peninsula Hawkes Bay -NZ 4108

Mahia BeachMahia Peninsula Hawkes Bay -NZ 4108

Lat: -39.08872, Lon: 177.878209

Elevation: 72

Station Type: WS2083

http://wairoa.net/mahia/index.htm

Latest ConditionsUpdated 1:30:05 PM GMT+12:12 Thursday, Sep 20, 2018
Currently Today's Max Today's Min Today's Average
Temperature 63.7°F17.6°C 63.7°F17.6°C 58.3°F14.6°C 59.3°F15.2°C
Dew Point 57.1°F13.9°C 59.5°F15.3°C 56.5°F13.6°C 57.4°F14.1°C
Winds 3.5 mph SSE5.6 kmh SSE 9.3 mph -15.0 kmh - - 4.9 mph 7.9 kmh
Wind Gusts 6.9 mph11.1 kmh 20.6 mph33.2 kmh - -
Humidity 79% 95% 79% 94%
Pressure 29.58 in1001.7 mb 29.78 in1008.5 mb 29.58 in1001.7 mb -
Precipitation - 0.34 in8.6 mm - -
Hour Temp Dew Point Humidity Winds Wind Gusts Pressure Precip Precip Rate Daily Precip Total
01:30 PM 63.7°F17.6°C 57.1°F13.9°C 79% 3.5 mph SSE5.6 kmh SSE 6.9 mph11.1 kmh 29.58 in1001.7 mb 0.00 in0.0 mm 0.00 in0.0 mm 0.34 in8.6 mm
01:15 PM 63.1°F17.3°C 57.2°F14.0°C 81% 4.2 mph SE6.8 kmh SE 6.9 mph11.1 kmh 29.59 in1002.0 mb 0.00 in0.0 mm 0.00 in0.0 mm 0.34 in8.6 mm
01:00 PM 61.9°F16.6°C 58.0°F14.4°C 87% 4.8 mph SE7.7 kmh SE 8.3 mph13.4 kmh 29.61 in1002.7 mb 0.00 in0.0 mm 0.00 in0.0 mm 0.34 in8.6 mm
12:45 PM 61.5°F16.4°C 58.6°F14.8°C 90% 4.7 mph SE7.6 kmh SE 8.3 mph13.4 kmh 29.61 in1002.7 mb 0.00 in0.0 mm 0.00 in0.0 mm 0.34 in8.6 mm
12:30 PM 61.2°F16.2°C 58.8°F14.9°C 92% 2.7 mph SSE4.3 kmh SSE 6.9 mph11.1 kmh 29.62 in1003.0 mb 0.00 in0.0 mm 0.00 in0.0 mm 0.34 in8.6 mm
12:15 PM 59.5°F15.3°C 57.5°F14.2°C 93% 3.7 mph SE6.0 kmh SE 7.6 mph12.2 kmh 29.62 in1003.0 mb 0.00 in0.0 mm 0.00 in0.0 mm 0.34 in8.6 mm
12:00 PM 59.2°F15.1°C 57.2°F14.0°C 93% 3.6 mph SE5.8 kmh SE 6.9 mph11.1 kmh 29.63 in1003.4 mb 0.01 in0.3 mm 0.00 in0.0 mm 0.34 in8.6 mm
11:45 AM 58.8°F14.9°C 56.8°F13.8°C 93% 3.6 mph SE5.8 kmh SE 6.0 mph9.7 kmh 29.64 in1003.7 mb 0.01 in0.3 mm 0.00 in0.0 mm 0.34 in8.6 mm
11:30 AM 58.5°F14.7°C 56.5°F13.6°C 93% 3.2 mph SE5.1 kmh SE 6.0 mph9.7 kmh 29.64 in1003.7 mb 0.01 in0.3 mm 0.00 in0.0 mm 0.34 in8.6 mm
11:15 AM 58.5°F14.7°C 56.5°F13.6°C 93% 3.3 mph E5.3 kmh E 6.9 mph11.1 kmh 29.64 in1003.7 mb 0.01 in0.3 mm 0.04 in1.0 mm 0.34 in8.6 mm
11:00 AM 59.0°F15.0°C 56.7°F13.7°C 92% 3.7 mph ESE6.0 kmh ESE 7.6 mph12.2 kmh 29.65 in1004.1 mb 0.00 in0.0 mm 0.00 in0.0 mm 0.33 in8.4 mm
10:45 AM 61.0°F16.1°C 58.7°F14.8°C 92% 2.9 mph WSW4.7 kmh WSW 8.3 mph13.4 kmh 29.65 in1004.1 mb 0.00 in0.0 mm 0.00 in0.0 mm 0.33 in8.4 mm
10:30 AM 61.0°F16.1°C 58.7°F14.8°C 92% 5.5 mph NW8.9 kmh NW 12.1 mph19.5 kmh 29.65 in1004.1 mb 0.00 in0.0 mm 0.00 in0.0 mm 0.33 in8.4 mm
10:15 AM 60.8°F16.0°C 58.5°F14.7°C 92% 4.2 mph NW6.8 kmh NW 9.2 mph14.8 kmh 29.65 in1004.1 mb 0.00 in0.0 mm 0.00 in0.0 mm 0.33 in8.4 mm
10:00 AM 61.5°F16.4°C 59.5°F15.3°C 93% 3.5 mph NW5.6 kmh NW 8.3 mph13.4 kmh 29.66 in1004.4 mb 0.00 in0.0 mm 0.00 in0.0 mm 0.33 in8.4 mm
09:45 AM 61.2°F16.2°C 59.1°F15.1°C 93% 4.4 mph NW7.1 kmh NW 9.2 mph14.8 kmh 29.66 in1004.4 mb 0.00 in0.0 mm 0.00 in0.0 mm 0.33 in8.4 mm
09:30 AM 60.6°F15.9°C 58.9°F14.9°C 94% 5.3 mph W8.5 kmh W 8.3 mph13.4 kmh 29.66 in1004.4 mb 0.00 in0.0 mm 0.00 in0.0 mm 0.33 in8.4 mm
09:15 AM 59.9°F15.5°C 58.2°F14.6°C 94% 3.4 mph NW5.5 kmh NW 8.3 mph13.4 kmh 29.67 in1004.7 mb 0.00 in0.0 mm 0.00 in0.0 mm 0.33 in8.4 mm
09:00 AM 59.7°F15.4°C 58.0°F14.4°C 94% 5.7 mph N9.2 kmh N 12.1 mph19.5 kmh 29.67 in1004.7 mb 0.00 in0.0 mm 0.00 in0.0 mm 0.33 in8.4 mm
08:45 AM 59.9°F15.5°C 58.5°F14.7°C 95% 4.4 mph NNW7.1 kmh NNW 12.1 mph19.5 kmh 29.67 in1004.7 mb 0.00 in0.0 mm 0.00 in0.0 mm 0.33 in8.4 mm
08:30 AM 59.5°F15.3°C 58.1°F14.5°C 95% 4.9 mph NW7.9 kmh NW 12.1 mph19.5 kmh 29.67 in1004.7 mb 0.00 in0.0 mm 0.00 in0.0 mm 0.33 in8.4 mm
08:15 AM 59.4°F15.2°C 57.9°F14.4°C 95% 4.9 mph NW7.9 kmh NW 10.7 mph17.2 kmh 29.67 in1004.7 mb 0.00 in0.0 mm 0.00 in0.0 mm 0.33 in8.4 mm
08:00 AM 59.2°F15.1°C 57.8°F14.3°C 95% 4.2 mph NNW6.8 kmh NNW 9.2 mph14.8 kmh 29.68 in1005.1 mb 0.00 in0.0 mm 0.00 in0.0 mm 0.33 in8.4 mm
07:45 AM 59.0°F15.0°C 57.3°F14.1°C 94% 5.4 mph NW8.7 kmh NW 10.7 mph17.2 kmh 29.68 in1005.1 mb 0.00 in0.0 mm 0.00 in0.0 mm 0.33 in8.4 mm
07:30 AM 58.8°F14.9°C 57.4°F14.1°C 95% 3.8 mph NNW6.1 kmh NNW 9.8 mph15.8 kmh 29.68 in1005.1 mb 0.00 in0.0 mm 0.00 in0.0 mm 0.33 in8.4 mm
07:15 AM 58.6°F14.8°C 57.2°F14.0°C 95% 5.1 mph NNW8.2 kmh NNW 11.4 mph18.3 kmh 29.68 in1005.1 mb 0.01 in0.3 mm 0.00 in0.0 mm 0.33 in8.4 mm
07:00 AM 58.6°F14.8°C 57.2°F14.0°C 95% 5.2 mph NW8.4 kmh NW 12.1 mph19.5 kmh 29.68 in1005.1 mb 0.02 in0.5 mm 0.00 in0.0 mm 0.33 in8.4 mm
06:45 AM 58.6°F14.8°C 57.2°F14.0°C 95% 6.7 mph NW10.8 kmh NW 13.6 mph21.9 kmh 29.68 in1005.1 mb 0.05 in1.3 mm 0.00 in0.0 mm 0.33 in8.4 mm
06:30 AM 58.6°F14.8°C 57.2°F14.0°C 95% 4.9 mph NW7.9 kmh NW 13.6 mph21.9 kmh 29.68 in1005.1 mb 0.07 in1.8 mm 0.00 in0.0 mm 0.33 in8.4 mm
06:15 AM 58.6°F14.8°C 57.2°F14.0°C 95% 9.3 mph NW15.0 kmh NW 20.6 mph33.2 kmh 29.69 in1005.4 mb 0.08 in2.0 mm 0.00 in0.0 mm 0.32 in8.1 mm
06:00 AM 58.8°F14.9°C 57.4°F14.1°C 95% 7.9 mph WNW12.7 kmh WNW 15.9 mph25.6 kmh 29.69 in1005.4 mb 0.09 in2.3 mm 0.00 in0.0 mm 0.31 in7.9 mm
05:45 AM 58.6°F14.8°C 57.2°F14.0°C 95% 5.5 mph WNW8.9 kmh WNW 11.4 mph18.3 kmh 29.69 in1005.4 mb 0.12 in3.0 mm 0.04 in1.0 mm 0.28 in7.1 mm
05:30 AM 58.8°F14.9°C 57.4°F14.1°C 95% 6.1 mph W9.8 kmh W 11.4 mph18.3 kmh 29.69 in1005.4 mb 0.11 in2.8 mm 0.00 in0.0 mm 0.25 in6.4 mm
05:15 AM 58.6°F14.8°C 57.2°F14.0°C 95% 5.4 mph WSW8.7 kmh WSW 11.4 mph18.3 kmh 29.69 in1005.4 mb 0.14 in3.6 mm 0.00 in0.0 mm 0.24 in6.1 mm
05:00 AM 58.5°F14.7°C 57.0°F13.9°C 95% 4.8 mph W7.7 kmh W 14.5 mph23.3 kmh 29.70 in1005.8 mb 0.14 in3.6 mm 0.03 in0.8 mm 0.21 in5.3 mm
04:45 AM 58.5°F14.7°C 57.0°F13.9°C 95% 5.7 mph W9.2 kmh W 9.2 mph14.8 kmh 29.70 in1005.8 mb 0.12 in3.0 mm 0.00 in0.0 mm 0.17 in4.3 mm
04:30 AM 58.5°F14.7°C 57.0°F13.9°C 95% 4.1 mph WNW6.6 kmh WNW 8.3 mph13.4 kmh 29.70 in1005.8 mb 0.12 in3.0 mm 0.20 in5.1 mm 0.14 in3.6 mm
04:15 AM 58.3°F14.6°C 56.9°F13.8°C 95% 4.3 mph WSW6.9 kmh WSW 9.8 mph15.8 kmh 29.71 in1006.1 mb 0.07 in1.8 mm 0.08 in2.0 mm 0.09 in2.3 mm
04:00 AM 58.3°F14.6°C 56.9°F13.8°C 95% 4.8 mph W7.7 kmh W 9.8 mph15.8 kmh 29.72 in1006.4 mb 0.05 in1.3 mm 0.05 in1.3 mm 0.07 in1.8 mm
03:45 AM 58.3°F14.6°C 56.9°F13.8°C 95% 3.4 mph NW5.5 kmh NW 9.2 mph14.8 kmh 29.72 in1006.4 mb 0.01 in0.3 mm 0.04 in1.0 mm 0.04 in1.0 mm
03:30 AM 58.3°F14.6°C 56.9°F13.8°C 95% 4.5 mph NW7.2 kmh NW 10.7 mph17.2 kmh 29.73 in1006.8 mb 0.00 in0.0 mm 0.00 in0.0 mm 0.02 in0.5 mm
03:15 AM 58.3°F14.6°C 56.9°F13.8°C 95% 5.6 mph NNW9.0 kmh NNW 11.4 mph18.3 kmh 29.73 in1006.8 mb 0.00 in0.0 mm 0.00 in0.0 mm 0.02 in0.5 mm
03:00 AM 58.3°F14.6°C 56.9°F13.8°C 95% 4.8 mph NW7.7 kmh NW 11.4 mph18.3 kmh 29.73 in1006.8 mb 0.00 in0.0 mm 0.00 in0.0 mm 0.02 in0.5 mm
02:45 AM 58.3°F14.6°C 56.9°F13.8°C 95% 6.7 mph NW10.8 kmh NW 13.6 mph21.9 kmh 29.74 in1007.1 mb 0.00 in0.0 mm 0.00 in0.0 mm 0.02 in0.5 mm
02:30 AM 58.3°F14.6°C 56.9°F13.8°C 95% 6.0 mph WNW9.7 kmh WNW 14.5 mph23.3 kmh 29.74 in1007.1 mb 0.00 in0.0 mm 0.00 in0.0 mm 0.02 in0.5 mm
02:15 AM 58.3°F14.6°C 56.9°F13.8°C 95% 5.2 mph NW8.4 kmh NW 11.4 mph18.3 kmh 29.75 in1007.5 mb 0.00 in0.0 mm 0.00 in0.0 mm 0.02 in0.5 mm
02:00 AM 58.3°F14.6°C 56.9°F13.8°C 95% 4.6 mph NW7.4 kmh NW 14.5 mph23.3 kmh 29.75 in1007.5 mb 0.01 in0.3 mm 0.00 in0.0 mm 0.02 in0.5 mm
01:45 AM 58.3°F14.6°C 56.9°F13.8°C 95% 6.2 mph NW10.0 kmh NW 12.1 mph19.5 kmh 29.76 in1007.8 mb 0.01 in0.3 mm 0.00 in0.0 mm 0.02 in0.5 mm
01:30 AM 58.3°F14.6°C 56.9°F13.8°C 95% 5.5 mph NW8.9 kmh NW 11.4 mph18.3 kmh 29.76 in1007.8 mb 0.02 in0.5 mm 0.00 in0.0 mm 0.02 in0.5 mm
01:15 AM 58.3°F14.6°C 56.9°F13.8°C 95% 8.1 mph WNW13.0 kmh WNW 14.5 mph23.3 kmh 29.77 in1008.1 mb 0.02 in0.5 mm 0.04 in1.0 mm 0.02 in0.5 mm
01:00 AM 58.3°F14.6°C 56.9°F13.8°C 95% 4.7 mph W7.6 kmh W 13.6 mph21.9 kmh 29.77 in1008.1 mb 0.01 in0.3 mm 0.00 in0.0 mm 0.01 in0.3 mm
12:45 AM 58.3°F14.6°C 56.9°F13.8°C 95% 3.6 mph W5.8 kmh W 7.6 mph12.2 kmh 29.78 in1008.5 mb 0.02 in0.5 mm 0.04 in1.0 mm 0.01 in0.3 mm
12:30 AM 58.3°F14.6°C 56.9°F13.8°C 95% 5.6 mph NW9.0 kmh NW 10.7 mph17.2 kmh 29.78 in1008.5 mb 0.01 in0.3 mm 0.00 in0.0 mm 0.01 in0.3 mm
12:15 AM 58.3°F14.6°C 56.9°F13.8°C 95% 5.0 mph WSW8.0 kmh WSW 8.3 mph13.4 kmh 29.78 in1008.5 mb 0.01 in0.3 mm 0.00 in0.0 mm 0.01 in0.3 mm
12:00 AM 58.3°F14.6°C 56.9°F13.8°C 95% 4.7 mph NW7.6 kmh NW 10.7 mph17.2 kmh 29.78 in1008.5 mb 0.01 in0.3 mm 0.00 in0.0 mm 0.01 in0.3 mm